createdAt,value
2022-09-03T00:00:07.426Z,11.02
2022-09-03T00:03:47.460Z,10.96
2022-09-03T00:07:02.957Z,10.92
2022-09-03T00:10:09.444Z,10.99
2022-09-03T00:13:09.881Z,10.90
2022-09-03T00:16:12.324Z,10.83
2022-09-03T00:19:10.797Z,10.94
2022-09-03T00:22:19.161Z,10.62
2022-09-03T00:25:34.424Z,10.72
2022-09-03T00:28:45.666Z,10.73
2022-09-03T00:31:51.739Z,10.82
2022-09-03T00:35:00.840Z,10.57
2022-09-03T00:37:58.937Z,10.50
2022-09-03T00:41:41.435Z,10.47
2022-09-03T00:45:00.849Z,10.33
2022-09-03T00:48:27.805Z,10.45
2022-09-03T00:51:43.399Z,10.49
2022-09-03T00:54:59.567Z,10.30
2022-09-03T00:58:18.459Z,10.26
2022-09-03T01:01:43.738Z,10.03
2022-09-03T01:05:08.258Z,10.43
2022-09-03T01:08:33.524Z,9.83
2022-09-03T01:11:47.221Z,9.71
2022-09-03T01:15:03.809Z,9.82
2022-09-03T01:18:21.525Z,10.08
2022-09-03T01:21:27.036Z,9.99
2022-09-03T01:25:19.865Z,10.06
2022-09-03T01:28:58.056Z,9.81
2022-09-03T01:32:47.687Z,9.74
2022-09-03T01:36:01.122Z,9.64
2022-09-03T01:39:04.860Z,9.74
2022-09-03T01:42:29.238Z,9.63
2022-09-03T01:45:34.744Z,9.67
2022-09-03T01:49:01.598Z,9.64
2022-09-03T01:52:37.560Z,9.83
2022-09-03T01:56:09.863Z,9.59
2022-09-03T01:59:22.465Z,9.52
2022-09-03T02:02:26.087Z,9.52
2022-09-03T02:05:29.988Z,9.80
2022-09-03T02:08:26.818Z,9.71
2022-09-03T02:11:24.352Z,9.43
2022-09-03T02:14:21.817Z,9.45
2022-09-03T02:17:19.196Z,9.52
2022-09-03T02:20:27.069Z,9.51
2022-09-03T02:23:27.760Z,9.61
2022-09-03T02:26:25.751Z,9.35
2022-09-03T02:29:23.676Z,9.51
2022-09-03T02:32:20.482Z,9.40
2022-09-03T02:35:17.435Z,9.41
2022-09-03T02:38:19.915Z,9.36
2022-09-03T02:41:17.746Z,9.30
2022-09-03T02:44:28.096Z,9.40
2022-09-03T02:47:29.459Z,9.30
2022-09-03T02:50:27.121Z,9.41
2022-09-03T02:53:24.050Z,9.41
2022-09-03T02:56:20.855Z,9.26
2022-09-03T02:59:18.051Z,9.27
2022-09-03T03:02:15.022Z,9.30
2022-09-03T03:05:21.716Z,9.35
2022-09-03T03:08:23.920Z,9.57
2022-09-03T03:11:22.258Z,9.41
2022-09-03T03:14:19.101Z,9.31
2022-09-03T03:17:15.919Z,9.15
2022-09-03T03:20:12.761Z,9.29
2022-09-03T03:23:10.490Z,9.25
2022-09-03T03:26:14.389Z,9.03
2022-09-03T03:29:17.835Z,9.08
2022-09-03T03:32:14.650Z,9.11
2022-09-03T03:35:11.882Z,9.05
2022-09-03T03:38:08.743Z,8.97
2022-09-03T03:41:17.370Z,9.12
2022-09-03T03:44:15.311Z,9.21
2022-09-03T03:47:12.382Z,9.18
2022-09-03T03:50:09.514Z,9.22
2022-09-03T03:53:06.335Z,9.07
2022-09-03T03:56:07.510Z,8.97
2022-09-03T03:59:05.150Z,8.97
2022-09-03T04:02:01.984Z,9.05
2022-09-03T04:04:58.826Z,9.08
2022-09-03T04:07:55.883Z,9.12
2022-09-03T04:10:52.880Z,9.05
2022-09-03T04:13:51.259Z,9.18
2022-09-03T04:16:48.101Z,9.17
2022-09-03T04:19:48.144Z,9.03
2022-09-03T04:22:46.532Z,9.10
2022-09-03T04:25:51.737Z,9.25
2022-09-03T04:28:49.240Z,9.19
2022-09-03T04:32:06.036Z,9.12
2022-09-03T04:35:02.869Z,9.09
2022-09-03T04:37:59.745Z,9.26
2022-09-03T04:40:56.548Z,8.98
2022-09-03T04:43:56.000Z,9.17
2022-09-03T04:46:53.289Z,8.90
2022-09-03T04:49:50.115Z,8.88
2022-09-03T04:52:46.960Z,9.01
2022-09-03T04:55:43.760Z,8.97
2022-09-03T04:58:44.181Z,8.90
2022-09-03T05:01:43.414Z,9.11
2022-09-03T05:04:40.248Z,8.95
2022-09-03T05:07:38.769Z,8.86
2022-09-03T05:10:35.729Z,8.68
2022-09-03T05:13:34.018Z,8.73
2022-09-03T05:16:31.071Z,8.84
2022-09-03T05:19:28.143Z,8.88
2022-09-03T05:22:25.005Z,8.79
2022-09-03T05:25:22.862Z,8.76
2022-09-03T05:28:19.767Z,8.99
2022-09-03T05:31:20.155Z,9.01
2022-09-03T05:34:18.521Z,9.20
2022-09-03T05:37:15.522Z,9.11
2022-09-03T05:40:12.336Z,9.23
2022-09-03T05:43:09.173Z,9.44
2022-09-03T05:46:09.665Z,9.40
2022-09-03T05:49:07.813Z,9.47
2022-09-03T05:52:04.862Z,9.41
2022-09-03T05:55:02.110Z,9.68
2022-09-03T05:58:00.343Z,9.74
2022-09-03T06:00:57.172Z,9.75
2022-09-03T06:04:00.292Z,9.78
2022-09-03T06:06:57.140Z,10.02
2022-09-03T06:09:54.624Z,10.22
2022-09-03T06:12:52.151Z,9.97
2022-09-03T06:15:48.966Z,10.08
2022-09-03T06:18:45.910Z,10.26
2022-09-03T06:21:45.402Z,10.15
2022-09-03T06:24:42.229Z,10.24
2022-09-03T06:27:39.048Z,10.34
2022-09-03T06:30:36.102Z,10.39
2022-09-03T06:33:35.320Z,10.43
2022-09-03T06:36:32.626Z,10.44
2022-09-03T06:39:29.475Z,10.37
2022-09-03T06:42:27.106Z,10.62
2022-09-03T06:45:23.975Z,10.69
2022-09-03T06:48:21.016Z,10.89
2022-09-03T06:51:24.270Z,10.95
2022-09-03T06:54:21.093Z,11.04
2022-09-03T06:57:17.968Z,11.09
2022-09-03T07:00:16.050Z,11.10
2022-09-03T07:03:12.872Z,11.26
2022-09-03T07:06:16.321Z,11.34
2022-09-03T07:09:15.514Z,11.39
2022-09-03T07:12:15.876Z,11.48
2022-09-03T07:15:12.704Z,11.66
2022-09-03T07:18:10.469Z,11.83
2022-09-03T07:21:11.047Z,11.91
2022-09-03T07:24:09.258Z,12.17
2022-09-03T07:27:07.886Z,12.34
2022-09-03T07:30:09.723Z,12.50
2022-09-03T07:33:07.294Z,13.69
2022-09-03T07:36:07.993Z,14.15
2022-09-03T07:39:05.148Z,14.28
2022-09-03T07:42:02.318Z,14.69
2022-09-03T07:44:59.597Z,14.49
2022-09-03T07:47:57.041Z,14.74
2022-09-03T07:51:01.886Z,14.62
2022-09-03T07:54:05.630Z,15.12
2022-09-03T07:57:02.693Z,14.81
2022-09-03T07:59:59.599Z,15.35
2022-09-03T08:02:56.608Z,15.31
2022-09-03T08:05:54.004Z,15.42
2022-09-03T08:09:04.648Z,15.55
2022-09-03T08:12:02.568Z,15.74
2022-09-03T08:14:59.435Z,15.93
2022-09-03T08:17:59.594Z,15.91
2022-09-03T08:21:00.835Z,15.98
2022-09-03T08:24:04.268Z,16.61
2022-09-03T08:27:01.099Z,16.58
2022-09-03T08:29:57.965Z,16.78
2022-09-03T08:32:55.831Z,17.02
2022-09-03T08:35:57.972Z,16.79
2022-09-03T08:38:56.272Z,17.28
2022-09-03T08:42:31.968Z,17.53
2022-09-03T08:45:30.276Z,18.02
2022-09-03T08:48:29.070Z,17.14
2022-09-03T08:51:27.938Z,17.49
2022-09-03T08:54:30.014Z,17.28
2022-09-03T08:57:27.268Z,16.95
2022-09-03T09:00:24.186Z,17.32
2022-09-03T09:03:46.055Z,17.51
2022-09-03T09:07:32.986Z,17.47
2022-09-03T09:10:55.357Z,17.59
2022-09-03T09:14:04.036Z,17.90
2022-09-03T09:17:24.873Z,17.70
2022-09-03T09:20:33.444Z,17.81
2022-09-03T09:23:37.782Z,17.98
2022-09-03T09:26:34.852Z,18.70
2022-09-03T09:29:39.347Z,18.65
2022-09-03T09:32:37.634Z,19.01
2022-09-03T09:35:34.712Z,19.63
2022-09-03T09:38:39.296Z,19.73
2022-09-03T09:41:36.180Z,19.16
2022-09-03T09:44:32.997Z,18.69
2022-09-03T09:47:38.228Z,18.41
2022-09-03T09:50:35.523Z,18.29
2022-09-03T09:53:32.843Z,18.71
2022-09-03T09:56:30.460Z,18.64
2022-09-03T09:59:27.270Z,18.37
2022-09-03T10:02:27.795Z,18.54
2022-09-03T10:05:40.585Z,18.77
2022-09-03T10:08:37.427Z,19.29
2022-09-03T10:11:39.809Z,20.73
2022-09-03T10:14:45.453Z,19.82
2022-09-03T10:17:57.089Z,19.36
2022-09-03T10:21:18.460Z,19.37
2022-09-03T10:24:39.662Z,19.30
2022-09-03T10:27:37.277Z,19.08
2022-09-03T10:31:08.123Z,19.54
2022-09-03T10:34:14.797Z,19.43
2022-09-03T10:37:47.417Z,19.39
2022-09-03T10:41:33.026Z,19.62
2022-09-03T10:44:48.081Z,20.13
2022-09-03T10:48:04.785Z,19.76
2022-09-03T10:51:34.915Z,20.96
2022-09-03T10:54:42.685Z,19.97
2022-09-03T10:58:40.543Z,20.24
2022-09-03T11:02:30.460Z,20.32
2022-09-03T11:05:48.066Z,20.95
2022-09-03T11:08:54.750Z,21.06
2022-09-03T11:12:04.946Z,20.18
2022-09-03T11:15:10.010Z,19.93
2022-09-03T11:18:28.425Z,20.28
2022-09-03T11:21:28.504Z,20.85
2022-09-03T11:24:30.322Z,21.25
2022-09-03T11:27:42.277Z,20.79
2022-09-03T11:31:05.093Z,21.35
2022-09-03T11:34:32.238Z,21.62
2022-09-03T11:37:31.081Z,21.07
2022-09-03T11:40:53.654Z,21.09
2022-09-03T11:43:50.470Z,20.57
2022-09-03T11:46:58.365Z,21.12
2022-09-03T11:50:33.500Z,20.41
2022-09-03T11:53:37.097Z,20.64
2022-09-03T11:56:35.673Z,20.93
2022-09-03T11:59:32.551Z,20.70
2022-09-03T12:02:36.166Z,20.80
2022-09-03T12:05:59.818Z,20.80
2022-09-03T12:09:33.978Z,20.80
2022-09-03T12:13:03.712Z,20.77
2022-09-03T12:16:44.763Z,20.50
2022-09-03T12:19:57.726Z,20.74
2022-09-03T12:22:55.516Z,20.51
2022-09-03T12:25:53.217Z,20.43
2022-09-03T12:28:57.286Z,19.92
2022-09-03T12:31:56.274Z,20.33
2022-09-03T12:34:54.306Z,20.32
2022-09-03T12:38:10.545Z,20.38
2022-09-03T12:41:28.235Z,20.87
2022-09-03T12:44:53.429Z,21.09
2022-09-03T12:47:51.292Z,20.98
2022-09-03T12:51:47.842Z,20.66
2022-09-03T12:54:17.646Z,20.64
2022-09-03T12:57:23.688Z,20.65
2022-09-03T13:00:20.704Z,20.78
2022-09-03T13:03:44.149Z,20.19
2022-09-03T13:07:01.269Z,20.27
2022-09-03T13:10:08.486Z,20.81
2022-09-03T13:13:27.208Z,20.49
2022-09-03T13:16:39.058Z,20.47
2022-09-03T13:20:24.796Z,20.51
2022-09-03T13:23:42.864Z,20.33
2022-09-03T13:27:01.723Z,20.58
2022-09-03T13:30:35.798Z,20.42
2022-09-03T13:33:44.927Z,20.05
2022-09-03T13:36:58.265Z,20.28
2022-09-03T13:40:00.115Z,20.25
2022-09-03T13:43:21.079Z,20.41
2022-09-03T13:46:38.463Z,20.44
2022-09-03T13:50:13.732Z,20.38
2022-09-03T13:54:01.120Z,20.35
2022-09-03T13:57:37.402Z,19.80
2022-09-03T14:00:44.197Z,20.15
2022-09-03T14:03:53.683Z,20.26
2022-09-03T14:07:03.937Z,20.10
2022-09-03T14:10:53.852Z,20.09
2022-09-03T14:15:00.198Z,20.07
2022-09-03T14:18:08.660Z,19.94
2022-09-03T14:21:15.792Z,19.43
2022-09-03T14:24:31.179Z,19.46
2022-09-03T14:27:31.242Z,19.25
2022-09-03T14:31:02.868Z,19.20
2022-09-03T14:34:25.641Z,19.20
2022-09-03T14:38:39.879Z,19.15
2022-09-03T14:42:34.500Z,19.20
2022-09-03T14:46:27.310Z,18.96
2022-09-03T14:50:11.090Z,18.44
2022-09-03T14:53:42.315Z,17.26
2022-09-03T14:57:16.340Z,17.24
2022-09-03T15:00:39.220Z,16.47
2022-09-03T15:04:07.573Z,15.67
2022-09-03T15:07:13.190Z,15.82
2022-09-03T15:10:27.613Z,15.50
2022-09-03T15:13:45.203Z,15.61
2022-09-03T15:17:20.678Z,15.44
2022-09-03T15:20:48.481Z,15.52
2022-09-03T15:23:47.886Z,15.25
2022-09-03T15:26:59.179Z,15.29
2022-09-03T15:30:09.989Z,15.36
2022-09-03T15:33:50.954Z,15.45
2022-09-03T15:36:54.089Z,15.33
2022-09-03T15:40:28.087Z,15.12
2022-09-03T15:43:34.333Z,15.42
2022-09-03T15:47:05.209Z,15.73
2022-09-03T15:50:38.352Z,15.02
2022-09-03T15:54:03.692Z,14.80
2022-09-03T15:57:32.178Z,15.07
2022-09-03T16:00:30.667Z,15.08
2022-09-03T16:03:49.896Z,15.03
2022-09-03T16:07:27.431Z,14.99
2022-09-03T16:10:45.783Z,15.49
2022-09-03T16:14:18.251Z,15.57
2022-09-03T16:17:31.259Z,15.48
2022-09-03T16:20:43.030Z,15.46
2022-09-03T16:24:00.716Z,15.25
2022-09-03T16:27:08.318Z,14.89
2022-09-03T16:30:22.298Z,15.04
2022-09-03T16:33:54.885Z,14.79
2022-09-03T16:37:27.256Z,15.21
2022-09-03T16:40:40.211Z,14.99
2022-09-03T16:44:45.303Z,15.08
2022-09-03T16:48:20.931Z,15.05
2022-09-03T16:51:54.066Z,14.75
2022-09-03T16:55:45.024Z,14.85
2022-09-03T16:59:15.667Z,14.80
2022-09-03T17:02:51.959Z,14.91
2022-09-03T17:06:00.746Z,14.79
2022-09-03T17:09:47.255Z,14.90
2022-09-03T17:13:07.544Z,14.61
2022-09-03T17:16:47.270Z,14.51
2022-09-03T17:19:54.356Z,14.74
2022-09-03T17:23:11.178Z,14.55
2022-09-03T17:26:29.858Z,14.59
2022-09-03T17:29:50.902Z,14.54
2022-09-03T17:33:33.012Z,14.78
2022-09-03T17:36:32.251Z,14.68
2022-09-03T17:39:59.371Z,14.42
2022-09-03T17:43:28.013Z,14.39
2022-09-03T17:47:03.381Z,14.43
2022-09-03T17:50:12.077Z,14.49
2022-09-03T17:53:30.765Z,14.50
2022-09-03T17:56:45.667Z,14.45
2022-09-03T18:00:08.360Z,14.51
2022-09-03T18:03:30.146Z,14.48
2022-09-03T18:06:46.240Z,14.69
2022-09-03T18:10:10.454Z,14.73
2022-09-03T18:13:50.219Z,14.69
2022-09-03T18:17:03.548Z,14.52
2022-09-03T18:20:31.899Z,14.55
2022-09-03T18:24:11.075Z,14.50
2022-09-03T18:27:41.204Z,14.58
2022-09-03T18:30:56.789Z,14.47
2022-09-03T18:34:12.166Z,14.46
2022-09-03T18:37:27.790Z,14.32
2022-09-03T18:40:53.674Z,14.46
2022-09-03T18:44:34.257Z,14.49
2022-09-03T18:48:25.083Z,14.27
2022-09-03T18:51:58.934Z,14.30
2022-09-03T18:55:53.050Z,14.20
2022-09-03T18:59:39.743Z,14.04
2022-09-03T19:03:19.503Z,13.99
2022-09-03T19:07:17.703Z,14.03
2022-09-03T19:10:46.960Z,13.84
2022-09-03T19:14:01.984Z,13.79
2022-09-03T19:17:53.364Z,13.77
2022-09-03T19:22:07.150Z,13.72
2022-09-03T19:25:29.845Z,13.84
2022-09-03T19:28:49.436Z,13.86
2022-09-03T19:32:22.016Z,13.96
2022-09-03T19:35:46.486Z,13.81
2022-09-03T19:39:30.979Z,13.68
2022-09-03T19:43:16.887Z,13.79
2022-09-03T19:47:16.714Z,13.85
2022-09-03T19:50:41.034Z,13.89
2022-09-03T19:53:56.245Z,13.63
2022-09-03T19:57:15.500Z,13.77
2022-09-03T20:00:33.321Z,13.61
2022-09-03T20:03:50.212Z,13.64
2022-09-03T20:07:06.262Z,13.60
2022-09-03T20:10:24.626Z,13.74
2022-09-03T20:13:21.492Z,13.57
2022-09-03T20:16:31.833Z,13.53
2022-09-03T20:20:05.149Z,13.58
2022-09-03T20:23:19.318Z,13.54
2022-09-03T20:26:27.821Z,13.51
2022-09-03T20:29:47.742Z,13.50
2022-09-03T20:33:12.018Z,13.23
2022-09-03T20:37:09.566Z,13.52
2022-09-03T20:40:56.946Z,13.51
2022-09-03T20:44:09.677Z,13.47
2022-09-03T20:47:15.983Z,13.39
2022-09-03T20:50:53.288Z,13.40
2022-09-03T20:54:42.667Z,13.28
2022-09-03T20:58:25.683Z,13.31
2022-09-03T21:01:45.252Z,13.27
2022-09-03T21:05:12.073Z,13.20
2022-09-03T21:08:46.293Z,12.95
2022-09-03T21:12:17.872Z,12.90
2022-09-03T21:15:42.389Z,12.85
2022-09-03T21:19:05.022Z,12.72
2022-09-03T21:22:28.638Z,12.91
2022-09-03T21:25:37.371Z,12.87
2022-09-03T21:28:40.331Z,12.89
2022-09-03T21:32:15.043Z,12.81
2022-09-03T21:35:51.232Z,12.67
2022-09-03T21:39:05.568Z,12.62
2022-09-03T21:42:11.627Z,12.43
2022-09-03T21:45:36.346Z,12.66
2022-09-03T21:48:39.977Z,12.67
2022-09-03T21:51:48.046Z,12.50
2022-09-03T21:54:44.955Z,12.64
2022-09-03T21:58:10.247Z,12.75
2022-09-03T22:01:29.632Z,12.48
2022-09-03T22:04:27.465Z,12.60
2022-09-03T22:08:10.583Z,12.43
2022-09-03T22:11:26.084Z,12.14
2022-09-03T22:14:24.718Z,12.53
2022-09-03T22:18:28.782Z,12.26
2022-09-03T22:21:36.617Z,12.46
2022-09-03T22:25:07.091Z,12.19
2022-09-03T22:28:34.139Z,12.17
2022-09-03T22:32:24.829Z,12.25
2022-09-03T22:35:58.074Z,12.15
2022-09-03T22:39:07.807Z,12.28
2022-09-03T22:42:38.752Z,12.01
2022-09-03T22:45:54.461Z,12.16
2022-09-03T22:49:20.805Z,12.17
2022-09-03T22:52:51.811Z,11.94
2022-09-03T22:56:15.771Z,11.76
2022-09-03T22:59:37.509Z,11.87
2022-09-03T23:02:35.285Z,11.83
2022-09-03T23:05:48.787Z,11.83
2022-09-03T23:09:10.261Z,11.73
2022-09-03T23:12:15.381Z,11.71
2022-09-03T23:15:30.436Z,11.72
2022-09-03T23:18:30.863Z,11.74
2022-09-03T23:21:41.179Z,11.73
2022-09-03T23:24:49.830Z,11.63
2022-09-03T23:28:10.762Z,11.51
2022-09-03T23:31:26.734Z,11.59
2022-09-03T23:34:24.693Z,11.31
2022-09-03T23:37:48.040Z,11.35
2022-09-03T23:40:50.385Z,11.32
2022-09-03T23:44:32.924Z,11.26
2022-09-03T23:48:07.191Z,11.21
2022-09-03T23:51:47.150Z,11.31
2022-09-03T23:55:15.754Z,11.26
2022-09-03T23:58:38.667Z,11.32
